Time;durP1;ratioP1;P1;durP2;ratioP2;P2;SDS_P1;SDS_P2;PMS_P1;PMS_P2;Temp;Humidity;BMP_temperature;BMP_pressure;BME280_temperature;BME280_humidity;BME280_pressure;Samples;Min_cycle;Max_cycle;Signal;HPM_P1;HPM_P2
2022/11/01 00:02:15;;;;;;;38.78;19.90;;;10.50;99.90;;;;;;4988105;28;20042;-70
2022/11/01 00:04:41;;;;;;;41.20;18.00;;;10.40;99.90;;;;;;4984422;28;20439;-70
2022/11/01 00:07:06;;;;;;;34.10;17.70;;;10.30;99.90;;;;;;4989375;28;20471;-72
2022/11/01 00:09:33;;;;;;;39.83;18.10;;;10.30;99.90;;;;;;4987853;28;20045;-71
2022/11/01 00:11:59;;;;;;;40.97;19.67;;;10.30;99.90;;;;;;4993812;28;20493;-71
2022/11/01 00:14:24;;;;;;;39.95;19.13;;;10.20;99.90;;;;;;4992390;28;20149;-70
2022/11/01 00:16:50;;;;;;;41.83;20.98;;;10.20;99.90;;;;;;4989960;28;20122;-71
2022/11/01 00:19:16;;;;;;;35.40;17.85;;;10.20;99.90;;;;;;4986521;28;20031;-70
2022/11/01 00:21:42;;;;;;;42.60;19.40;;;10.20;99.90;;;;;;4990031;28;20073;-70
2022/11/01 00:24:08;;;;;;;45.20;21.20;;;10.20;99.90;;;;;;4987923;28;20065;-70
2022/11/01 00:26:33;;;;;;;49.78;22.08;;;10.20;99.90;;;;;;4987711;28;20527;-69
2022/11/01 00:28:59;;;;;;;47.80;21.77;;;10.10;99.90;;;;;;4989815;28;20094;-70
2022/11/01 00:31:25;;;;;;;39.30;20.08;;;10.10;99.90;;;;;;4985774;28;20035;-71
2022/11/01 00:33:51;;;;;;;41.90;20.40;;;10.00;99.90;;;;;;4990033;28;20468;-71
2022/11/01 00:36:16;;;;;;;45.72;20.70;;;10.00;99.90;;;;;;4988208;28;20065;-70
2022/11/01 00:38:42;;;;;;;42.33;19.48;;;10.00;99.90;;;;;;4987875;28;20081;-71
2022/11/01 00:41:08;;;;;;;42.28;19.40;;;10.00;99.90;;;;;;4987048;28;20035;-71
2022/11/01 00:43:35;;;;;;;43.28;20.02;;;10.00;99.90;;;;;;4987529;28;20050;-69
2022/11/01 00:46:01;;;;;;;37.15;20.30;;;10.00;99.90;;;;;;4987991;28;20523;-70
2022/11/01 00:48:27;;;;;;;39.65;21.27;;;10.10;99.90;;;;;;4987176;28;20054;-71
2022/11/01 00:50:53;;;;;;;42.25;20.80;;;10.10;99.90;;;;;;4987349;28;20113;-71
2022/11/01 00:53:19;;;;;;;42.28;20.00;;;10.10;99.90;;;;;;4986986;28;20125;-71
2022/11/01 00:55:45;;;;;;;45.53;19.90;;;10.00;99.90;;;;;;4987918;28;20030;-71
2022/11/01 00:58:10;;;;;;;37.78;19.65;;;10.00;99.90;;;;;;4992437;28;20136;-72
2022/11/01 01:00:36;;;;;;;42.45;18.90;;;9.90;99.90;;;;;;4989490;28;20045;-70
2022/11/01 01:03:05;;;;;;;43.78;19.40;;;10.00;99.90;;;;;;4987224;28;21028;-69
2022/11/01 01:05:32;;;;;;;39.40;19.65;;;10.00;99.90;;;;;;4987171;28;20239;-70
2022/11/01 01:07:57;;;;;;;34.42;17.88;;;10.10;99.90;;;;;;4987026;28;20031;-70
2022/11/01 01:10:23;;;;;;;42.72;19.38;;;10.20;99.90;;;;;;4984856;28;20037;-70
2022/11/01 01:12:49;;;;;;;41.35;19.25;;;10.20;99.90;;;;;;4987717;28;20480;-70
2022/11/01 01:15:15;;;;;;;37.00;18.17;;;10.20;99.90;;;;;;4986712;28;20488;-71
2022/11/01 01:17:40;;;;;;;35.20;17.85;;;10.10;99.90;;;;;;4989105;28;20030;-71
2022/11/01 01:20:07;;;;;;;44.80;20.70;;;10.00;99.90;;;;;;4984362;28;20550;-70
2022/11/01 01:22:32;;;;;;;40.00;19.60;;;9.90;99.90;;;;;;4985974;28;20908;-70
2022/11/01 01:24:58;;;;;;;40.33;19.83;;;9.60;99.90;;;;;;4988641;28;20042;-70
2022/11/01 01:27:24;;;;;;;39.15;19.42;;;9.50;99.90;;;;;;4984943;28;20077;-71
2022/11/01 01:29:51;;;;;;;41.22;19.00;;;9.40;99.90;;;;;;4987529;28;20042;-70
2022/11/01 01:32:19;;;;;;;40.08;19.73;;;9.40;99.90;;;;;;4985386;28;20641;-70
2022/11/01 01:34:45;;;;;;;39.92;19.65;;;9.40;99.90;;;;;;4986599;28;20049;-69
2022/11/01 01:37:12;;;;;;;41.63;19.45;;;9.50;99.90;;;;;;4987974;28;20047;-72
2022/11/01 01:39:37;;;;;;;40.50;18.70;;;9.60;99.90;;;;;;4986372;28;20038;-70
2022/11/01 01:42:15;;;;;;;44.33;20.10;;;9.60;99.90;;;;;;4989224;28;20045;-69
2022/11/01 01:44:49;;;;;;;40.30;18.58;;;9.60;99.90;;;;;;4987470;28;20509;-70
2022/11/01 01:47:25;;;;;;;35.30;17.63;;;9.70;99.90;;;;;;4984339;28;20055;-71
2022/11/01 01:49:56;;;;;;;31.05;16.33;;;9.60;99.90;;;;;;4988672;28;20505;-70
2022/11/01 01:52:22;;;;;;;32.55;18.38;;;9.70;99.90;;;;;;4986245;28;20038;-70
2022/11/01 01:54:49;;;;;;;37.75;19.27;;;9.70;99.90;;;;;;4992026;28;20113;-70
2022/11/01 01:57:16;;;;;;;42.15;18.52;;;9.60;99.90;;;;;;4989683;28;20424;-71
2022/11/01 01:59:42;;;;;;;36.10;17.83;;;9.50;99.90;;;;;;4989531;28;20026;-70
2022/11/01 02:02:08;;;;;;;43.03;18.30;;;9.40;99.90;;;;;;4989707;28;20441;-68
2022/11/01 02:04:49;;;;;;;38.30;18.98;;;9.40;99.90;;;;;;4991884;28;20113;-69
2022/11/01 02:07:15;;;;;;;38.15;18.85;;;9.50;99.90;;;;;;4990260;28;20046;-70
2022/11/01 02:09:42;;;;;;;37.25;18.27;;;9.50;99.90;;;;;;4991624;28;20031;-70
2022/11/01 02:12:10;;;;;;;36.90;17.83;;;9.60;99.90;;;;;;4987298;28;20042;-71
2022/11/01 02:14:38;;;;;;;40.95;18.95;;;9.60;99.90;;;;;;4999451;28;20879;-70
2022/11/01 02:17:14;;;;;;;39.78;18.40;;;9.60;99.90;;;;;;4995144;28;20084;-68
2022/11/01 02:19:48;;;;;;;40.45;18.33;;;9.60;99.90;;;;;;4992018;28;20069;-70
2022/11/01 02:22:35;;;;;;;35.92;17.80;;;9.60;99.90;;;;;;4990077;28;20058;-72
2022/11/01 02:25:22;;;;;;;38.35;17.70;;;9.60;99.90;;;;;;4991233;28;20446;-70
2022/11/01 02:28:15;;;;;;;36.35;18.85;;;9.50;99.90;;;;;;4990564;28;20037;-71
2022/11/01 02:30:54;;;;;;;37.20;17.60;;;9.60;99.90;;;;;;4991053;28;20105;-70
2022/11/01 02:33:33;;;;;;;42.85;18.08;;;9.60;99.90;;;;;;4990720;28;20380;-70
2022/11/01 02:36:06;;;;;;;39.08;18.60;;;9.60;99.90;;;;;;4990557;28;20026;-71
2022/11/01 02:38:57;;;;;;;36.67;17.77;;;9.60;99.90;;;;;;4996279;28;20550;-71
2022/11/01 02:41:35;;;;;;;33.88;17.85;;;9.60;99.90;;;;;;4989133;28;20038;-71
2022/11/01 02:44:08;;;;;;;34.70;18.02;;;9.60;99.90;;;;;;4991732;28;20069;-70
2022/11/01 02:47:00;;;;;;;39.38;17.30;;;9.50;99.90;;;;;;4988455;28;20054;-70
2022/11/01 02:49:33;;;;;;;33.03;16.80;;;9.40;99.90;;;;;;4990371;28;20069;-70
2022/11/01 02:52:00;;;;;;;35.92;18.58;;;9.40;99.90;;;;;;4990628;28;20062;-71
2022/11/01 02:54:41;;;;;;;36.33;17.30;;;9.30;99.90;;;;;;4996661;28;20038;-70
2022/11/01 02:57:38;;;;;;;38.40;18.75;;;9.30;99.90;;;;;;4987524;28;20038;-70
2022/11/01 03:00:36;;;;;;;42.47;18.58;;;9.30;99.90;;;;;;4980655;28;20117;-68
2022/11/01 03:03:22;;;;;;;38.92;18.10;;;9.40;99.90;;;;;;4978995;28;20082;-71
2022/11/01 03:06:01;;;;;;;34.90;16.48;;;9.40;99.90;;;;;;4981465;28;20034;-69
2022/11/01 03:08:34;;;;;;;35.53;17.15;;;9.30;99.90;;;;;;4994794;28;20045;-70
2022/11/01 03:11:31;;;;;;;35.50;17.63;;;9.20;99.90;;;;;;4992019;28;20026;-71
2022/11/01 03:14:12;;;;;;;36.42;17.42;;;9.30;99.90;;;;;;4986466;28;20104;-70
2022/11/01 03:16:57;;;;;;;;;;;9.30;99.90;;;;;;4988427;28;20699;-70
2022/11/01 03:19:35;;;;;;;35.25;17.45;;;9.40;99.90;;;;;;4988645;28;19952;-71
2022/11/01 03:22:19;;;;;;;36.33;17.55;;;9.50;99.90;;;;;;4988554;28;20042;-70
2022/11/01 03:25:02;;;;;;;38.47;17.77;;;9.50;99.90;;;;;;5003118;28;20049;-70
2022/11/01 03:27:31;;;;;;;41.50;18.20;;;9.60;99.90;;;;;;4992866;28;20045;-70
2022/11/01 03:30:07;;;;;;;38.58;18.02;;;9.60;99.90;;;;;;5010533;28;20102;-70
2022/11/01 03:32:40;;;;;;;36.75;17.98;;;9.60;99.90;;;;;;4987232;28;20038;-69
2022/11/01 03:35:10;;;;;;;40.45;17.67;;;9.60;99.90;;;;;;4990100;28;20054;-70
2022/11/01 03:37:38;;;;;;;;;;;9.60;99.90;;;;;;4987523;28;20041;-69
2022/11/01 03:40:06;;;;;;;34.17;16.35;;;9.70;99.90;;;;;;4988899;28;19909;-71
2022/11/01 03:42:33;;;;;;;31.27;16.85;;;9.70;99.90;;;;;;4986995;28;20046;-71
2022/11/01 03:45:05;;;;;;;33.92;16.92;;;9.60;99.90;;;;;;4992564;28;20081;-70
2022/11/01 03:47:31;;;;;;;33.70;16.73;;;9.60;99.90;;;;;;4989890;28;20131;-70
2022/11/01 03:50:18;;;;;;;34.38;16.92;;;9.70;99.90;;;;;;4998562;28;20666;-70
2022/11/01 03:52:44;;;;;;;32.67;16.67;;;9.70;99.90;;;;;;4988078;28;20069;-71
2022/11/01 03:55:17;;;;;;;29.25;15.75;;;9.70;99.90;;;;;;4988834;28;20023;-70
2022/11/01 03:57:44;;;;;;;34.63;16.77;;;9.70;99.90;;;;;;4986396;28;20042;-69
2022/11/01 04:00:15;;;;;;;30.10;15.98;;;9.70;99.90;;;;;;4987889;28;20022;-70
2022/11/01 04:02:42;;;;;;;32.65;16.17;;;9.70;99.90;;;;;;4987030;28;20038;-70
2022/11/01 04:05:09;;;;;;;32.58;16.95;;;9.70;99.90;;;;;;4988030;28;20044;-69
2022/11/01 04:07:34;;;;;;;36.95;16.67;;;9.70;99.90;;;;;;4986199;28;20030;-69
2022/11/01 04:10:00;;;;;;;34.97;16.95;;;9.70;99.90;;;;;;4988169;28;20044;-70
2022/11/01 04:12:26;;;;;;;30.52;15.90;;;9.70;99.90;;;;;;4999514;28;20034;-69
2022/11/01 04:20:32;;;;;;;31.35;15.32;;;9.70;99.90;;;;;;4985063;28;20032;-72
2022/11/01 04:23:02;;;;;;;31.17;14.95;;;9.70;99.90;;;;;;4993572;28;20054;-70
2022/11/01 04:25:29;;;;;;;28.17;13.93;;;9.60;99.90;;;;;;4989434;28;20109;-69
2022/11/01 04:27:58;;;;;;;32.40;15.25;;;9.60;99.90;;;;;;4985353;28;20491;-70
2022/11/01 04:30:25;;;;;;;31.40;15.43;;;9.70;99.90;;;;;;4989853;28;20089;-70
2022/11/01 04:32:51;;;;;;;33.35;14.82;;;9.70;99.90;;;;;;4987354;28;20030;-70
2022/11/01 04:35:17;;;;;;;28.95;15.10;;;9.70;99.90;;;;;;4988731;28;20038;-70
2022/11/01 04:37:42;;;;;;;33.75;15.15;;;9.80;99.90;;;;;;4988071;28;20116;-71
2022/11/01 04:40:09;;;;;;;31.70;14.70;;;9.80;99.90;;;;;;4989363;28;20054;-69
2022/11/01 04:42:35;;;;;;;26.63;14.80;;;9.60;99.90;;;;;;4983615;28;20042;-69
2022/11/01 04:45:02;;;;;;;31.15;15.18;;;9.60;99.90;;;;;;4986143;28;20396;-70
2022/11/01 04:47:27;;;;;;;32.65;15.07;;;9.60;99.90;;;;;;4986224;28;20090;-70
2022/11/01 04:49:53;;;;;;;33.10;14.57;;;9.60;99.90;;;;;;4994927;28;20116;-69
2022/11/01 04:52:18;;;;;;;29.48;14.45;;;10.00;99.90;;;;;;4988264;28;20030;-71
2022/11/01 04:54:44;;;;;;;28.75;12.80;;;10.10;99.90;;;;;;4987141;28;20022;-69
2022/11/01 04:57:22;;;;;;;25.13;12.48;;;10.00;99.90;;;;;;4987363;28;20029;-70
2022/11/01 04:59:52;;;;;;;31.58;12.40;;;10.20;99.90;;;;;;4984812;28;20046;-70
2022/11/01 05:02:22;;;;;;;26.88;11.20;;;10.90;99.90;;;;;;4988490;28;20042;-70
2022/11/01 05:04:48;;;;;;;29.05;9.88;;;11.30;99.90;;;;;;4985632;28;20121;-68
2022/11/01 05:07:14;;;;;;;26.45;10.43;;;11.70;99.90;;;;;;4988138;28;20108;-69
2022/11/01 05:09:41;;;;;;;21.77;9.55;;;12.10;99.90;;;;;;4987626;28;20472;-69
2022/11/01 05:12:07;;;;;;;24.73;9.52;;;12.20;99.90;;;;;;4984008;28;20034;-69
2022/11/01 05:14:32;;;;;;;20.20;8.48;;;12.40;99.90;;;;;;4982093;28;20161;-72
2022/11/01 05:16:58;;;;;;;17.20;7.30;;;12.80;99.90;;;;;;4983671;28;20105;-70
2022/11/01 05:19:24;;;;;;;19.17;6.70;;;13.20;99.90;;;;;;4988352;28;20031;-72
2022/11/01 05:21:50;;;;;;;14.63;6.78;;;13.70;99.90;;;;;;4988674;28;20041;-69
2022/11/01 05:24:16;;;;;;;19.58;6.47;;;13.90;99.90;;;;;;4983058;28;20038;-69
2022/11/01 05:26:42;;;;;;;21.42;6.35;;;14.10;99.90;;;;;;4986386;28;20646;-69
2022/11/01 05:29:08;;;;;;;17.73;7.13;;;14.10;99.90;;;;;;4990286;28;20401;-68
2022/11/01 05:31:35;;;;;;;18.35;6.80;;;14.10;99.90;;;;;;4995205;28;20042;-70
2022/11/01 05:34:00;;;;;;;13.50;6.85;;;14.10;99.90;;;;;;4990395;28;20113;-71
2022/11/01 05:36:26;;;;;;;17.15;7.00;;;14.10;99.90;;;;;;4991022;28;20165;-72
2022/11/01 05:38:55;;;;;;;23.42;6.80;;;14.00;99.90;;;;;;4991641;28;20155;-69
2022/11/01 05:41:21;;;;;;;19.67;5.80;;;14.00;99.90;;;;;;4990053;28;20193;-70
2022/11/01 05:43:46;;;;;;;19.23;7.40;;;14.10;99.90;;;;;;4977803;28;20265;-69
2022/11/01 05:46:12;;;;;;;19.15;6.15;;;14.10;99.90;;;;;;4989644;28;20558;-69
2022/11/01 05:48:38;;;;;;;16.00;6.03;;;14.10;99.90;;;;;;4990773;28;20034;-71
2022/11/01 05:51:03;;;;;;;13.55;5.63;;;14.10;99.90;;;;;;4988326;28;20467;-70
2022/11/01 05:53:29;;;;;;;16.00;6.10;;;14.10;99.90;;;;;;4989424;28;20066;-75
2022/11/01 05:55:55;;;;;;;14.27;5.85;;;14.10;99.90;;;;;;4994226;28;20486;-71
2022/11/01 05:58:21;;;;;;;15.02;5.95;;;14.00;99.90;;;;;;4995844;28;20089;-71
2022/11/01 06:00:46;;;;;;;14.82;5.57;;;13.90;99.90;;;;;;4987987;28;20708;-71
2022/11/01 06:03:12;;;;;;;12.73;5.80;;;13.90;99.90;;;;;;4990227;28;20189;-72
2022/11/01 06:05:38;;;;;;;13.93;5.53;;;13.80;99.90;;;;;;4990158;28;20034;-71
2022/11/01 06:08:04;;;;;;;18.50;6.93;;;13.80;99.90;;;;;;4992301;28;20065;-72
2022/11/01 06:10:31;;;;;;;18.55;6.35;;;13.70;99.90;;;;;;4989389;28;20040;-71
2022/11/01 06:12:56;;;;;;;14.20;6.15;;;13.70;99.90;;;;;;4988335;28;20060;-70
2022/11/01 06:15:22;;;;;;;16.10;6.05;;;13.70;99.90;;;;;;4991000;28;20034;-70
2022/11/01 06:17:53;;;;;;;15.13;5.47;;;13.70;99.90;;;;;;4991170;28;20022;-71
2022/11/01 06:20:19;;;;;;;11.48;5.53;;;13.60;99.90;;;;;;4991129;28;20188;-70
2022/11/01 06:22:45;;;;;;;16.35;6.30;;;13.60;99.90;;;;;;4991530;28;20117;-71
2022/11/01 06:25:11;;;;;;;14.00;5.82;;;13.60;99.90;;;;;;4991170;28;20455;-71
2022/11/01 06:27:36;;;;;;;13.68;5.50;;;13.50;99.90;;;;;;4984659;28;20491;-72
2022/11/01 06:30:03;;;;;;;17.35;5.82;;;13.50;99.90;;;;;;4988039;28;20035;-71
2022/11/01 06:32:28;;;;;;;17.17;6.10;;;13.50;99.90;;;;;;4989260;28;20493;-71
2022/11/01 06:34:54;;;;;;;9.75;5.10;;;13.50;99.90;;;;;;4994088;28;20121;-70
2022/11/01 06:37:20;;;;;;;18.70;5.70;;;13.60;99.90;;;;;;4975534;28;20054;-71
2022/11/01 06:39:46;;;;;;;14.68;5.63;;;13.60;99.90;;;;;;4994529;28;20030;-70
2022/11/01 06:42:11;;;;;;;12.45;5.18;;;13.60;99.90;;;;;;5011554;28;20085;-71
2022/11/01 06:44:37;;;;;;;13.73;5.18;;;13.70;99.90;;;;;;4995716;28;20042;-71
2022/11/01 06:47:02;;;;;;;11.50;4.80;;;13.70;99.90;;;;;;4988338;28;20740;-70
2022/11/01 06:49:29;;;;;;;12.20;5.10;;;13.70;99.90;;;;;;4991824;28;20026;-71
2022/11/01 06:51:55;;;;;;;18.55;4.90;;;13.80;99.90;;;;;;4989319;28;20058;-72
2022/11/01 06:54:20;;;;;;;11.50;4.35;;;13.90;99.90;;;;;;4991295;28;20062;-72
2022/11/01 06:56:46;;;;;;;8.70;3.88;;;13.90;99.90;;;;;;4989526;28;20087;-71
2022/11/01 06:59:12;;;;;;;12.68;4.60;;;13.90;99.90;;;;;;4991495;28;20197;-71
2022/11/01 07:01:37;;;;;;;15.05;3.95;;;14.00;99.90;;;;;;4989724;28;20039;-71
2022/11/01 07:04:03;;;;;;;8.57;4.07;;;14.10;99.90;;;;;;4990380;28;20502;-71
2022/11/01 07:06:29;;;;;;;17.35;3.92;;;14.20;99.90;;;;;;4983665;28;20161;-71
2022/11/01 07:08:57;;;;;;;12.80;3.63;;;14.20;99.90;;;;;;4990934;28;20090;-70
2022/11/01 07:11:22;;;;;;;8.68;3.72;;;14.30;99.90;;;;;;4991594;28;20037;-71
2022/11/01 07:13:48;;;;;;;10.57;3.25;;;14.40;99.90;;;;;;5006385;28;20034;-70
2022/11/01 07:16:14;;;;;;;9.38;3.70;;;14.50;99.90;;;;;;5011034;28;20045;-71
2022/11/01 07:18:40;;;;;;;13.30;3.53;;;14.60;99.90;;;;;;4988452;28;20176;-69
2022/11/01 07:21:05;;;;;;;9.90;2.83;;;14.60;99.90;;;;;;4990353;28;20111;-71
2022/11/01 07:23:31;;;;;;;9.50;2.55;;;14.60;99.90;;;;;;4990760;28;20034;-74
2022/11/01 07:25:57;;;;;;;7.70;2.92;;;14.60;99.90;;;;;;4990817;28;20555;-71
2022/11/01 07:28:23;;;;;;;6.53;2.80;;;14.70;99.90;;;;;;4987941;28;20038;-73
2022/11/01 07:30:50;;;;;;;10.40;2.33;;;14.70;99.90;;;;;;4990235;28;20053;-70
2022/11/01 07:33:16;;;;;;;6.40;2.58;;;14.70;99.90;;;;;;4990234;28;20042;-71
2022/11/01 07:35:42;;;;;;;8.60;2.50;;;14.70;99.90;;;;;;4986856;28;20022;-70
2022/11/01 07:38:08;;;;;;;6.93;2.58;;;14.80;99.90;;;;;;4989794;28;20086;-72
2022/11/01 07:40:35;;;;;;;8.27;2.20;;;14.90;99.90;;;;;;4989307;28;20088;-71
2022/11/01 07:43:01;;;;;;;4.88;2.13;;;15.00;99.90;;;;;;4990690;28;20042;-71
2022/11/01 07:45:29;;;;;;;5.60;2.38;;;15.10;99.90;;;;;;4989586;28;20050;-71
2022/11/01 07:48:01;;;;;;;6.43;2.28;;;15.10;99.90;;;;;;4992093;28;20562;-71
2022/11/01 07:50:31;;;;;;;4.93;2.10;;;15.10;99.90;;;;;;4987043;28;20034;-71
2022/11/01 07:53:05;;;;;;;6.70;1.90;;;15.10;99.90;;;;;;4988360;28;20038;-69
2022/11/01 07:55:31;;;;;;;7.15;2.25;;;15.10;99.90;;;;;;4987718;28;20110;-70
2022/11/01 07:57:56;;;;;;;8.60;2.35;;;15.10;99.90;;;;;;4986683;28;20114;-70
2022/11/01 08:00:22;;;;;;;9.35;2.17;;;15.10;99.90;;;;;;4987357;28;21076;-70
2022/11/01 08:02:48;;;;;;;7.38;2.80;;;15.10;99.90;;;;;;4990905;28;20513;-72
2022/11/01 08:05:14;;;;;;;9.23;2.80;;;15.10;99.90;;;;;;4989693;28;20053;-72
2022/11/01 08:07:40;;;;;;;9.07;2.40;;;15.10;99.90;;;;;;4989309;28;20030;-72
2022/11/01 08:10:08;;;;;;;7.55;2.40;;;15.10;99.90;;;;;;4989244;28;20073;-72
2022/11/01 08:12:34;;;;;;;8.05;2.55;;;15.20;99.90;;;;;;4988410;28;20038;-72
2022/11/01 08:15:01;;;;;;;9.50;2.55;;;15.20;99.90;;;;;;4987077;28;20046;-70
2022/11/01 08:17:28;;;;;;;7.57;2.42;;;15.20;99.90;;;;;;4989473;28;20065;-71
2022/11/01 08:19:53;;;;;;;5.28;2.40;;;15.30;99.90;;;;;;4980165;28;20614;-71
2022/11/01 08:22:19;;;;;;;7.97;2.65;;;15.30;99.90;;;;;;5009737;28;20038;-70
2022/11/01 08:24:45;;;;;;;6.07;1.80;;;15.40;99.90;;;;;;4991576;28;20066;-70
2022/11/01 08:27:10;;;;;;;3.80;2.00;;;15.50;99.90;;;;;;4989028;28;20034;-72
2022/11/01 08:29:36;;;;;;;6.80;2.10;;;15.60;99.90;;;;;;4989478;28;20070;-73
2022/11/01 08:32:02;;;;;;;8.32;1.98;;;15.60;99.90;;;;;;4988559;28;20057;-69
2022/11/01 08:34:31;;;;;;;5.82;2.17;;;15.70;99.90;;;;;;4988094;28;20037;-70
2022/11/01 08:36:57;;;;;;;11.15;2.40;;;15.80;99.90;;;;;;4990875;28;20030;-69
2022/11/01 08:39:24;;;;;;;5.97;2.10;;;15.90;99.90;;;;;;5006115;28;20088;-72
2022/11/01 08:41:50;;;;;;;11.80;3.22;;;15.80;99.90;;;;;;4988929;28;20089;-72
2022/11/01 08:44:18;;;;;;;6.47;2.50;;;15.70;99.90;;;;;;4988152;28;20038;-70
2022/11/01 08:46:44;;;;;;;10.82;2.72;;;15.60;99.90;;;;;;4988605;28;20078;-70
2022/11/01 08:49:10;;;;;;;7.28;2.42;;;15.60;99.90;;;;;;4989356;28;20034;-71
2022/11/01 08:51:37;;;;;;;5.65;2.45;;;15.60;99.90;;;;;;4989201;28;20036;-71
2022/11/01 08:54:04;;;;;;;7.07;2.67;;;15.50;99.90;;;;;;4990249;28;20061;-70
2022/11/01 08:56:30;;;;;;;7.60;2.60;;;15.50;99.90;;;;;;5006833;28;20037;-71
2022/11/01 08:58:56;;;;;;;5.38;2.42;;;15.50;99.90;;;;;;4988223;28;20861;-70
2022/11/01 09:01:25;;;;;;;4.18;2.38;;;15.50;99.90;;;;;;4987460;28;20046;-72
2022/11/01 09:03:59;;;;;;;6.03;2.15;;;15.50;99.90;;;;;;4986515;28;20073;-72
2022/11/01 09:06:26;;;;;;;3.08;1.58;;;15.50;99.90;;;;;;4988082;28;20034;-71
2022/11/01 09:08:54;;;;;;;4.63;2.00;;;15.60;99.90;;;;;;4986083;28;20027;-71
2022/11/01 09:11:22;;;;;;;4.28;1.77;;;15.50;99.90;;;;;;4992587;28;20033;-72
2022/11/01 09:13:48;;;;;;;4.18;2.00;;;15.50;99.90;;;;;;5004476;28;20040;-72
2022/11/01 09:16:15;;;;;;;2.80;1.42;;;15.50;99.90;;;;;;4984573;28;20050;-72
2022/11/01 09:18:41;;;;;;;2.42;1.45;;;15.40;99.90;;;;;;4988857;28;20034;-73
2022/11/01 09:21:07;;;;;;;5.95;1.55;;;15.50;99.90;;;;;;4988769;28;20573;-72
2022/11/01 09:23:34;;;;;;;3.38;1.30;;;15.50;99.90;;;;;;4988664;28;20056;-72
2022/11/01 09:26:04;;;;;;;3.53;1.25;;;15.50;99.90;;;;;;4987554;28;20106;-71
2022/11/01 09:28:31;;;;;;;2.70;1.10;;;15.50;99.90;;;;;;4992680;28;20041;-72
2022/11/01 09:31:00;;;;;;;2.20;1.10;;;15.60;99.90;;;;;;4987560;28;20109;-71
2022/11/01 09:33:26;;;;;;;3.10;0.90;;;15.60;99.90;;;;;;4988256;28;20035;-71
2022/11/01 09:35:53;;;;;;;2.42;1.10;;;15.60;99.90;;;;;;4986393;28;20041;-73
2022/11/01 09:38:18;;;;;;;6.57;1.15;;;15.60;99.90;;;;;;4987338;28;20089;-72
2022/11/01 09:40:56;;;;;;;1.45;0.80;;;15.70;99.90;;;;;;4988579;28;20026;-70
2022/11/01 09:43:23;;;;;;;1.85;0.98;;;15.70;99.90;;;;;;4987838;28;20121;-72
2022/11/01 09:45:52;;;;;;;1.23;0.85;;;15.70;99.90;;;;;;4995603;28;20103;-74
2022/11/01 09:48:19;;;;;;;1.48;0.70;;;15.70;99.90;;;;;;4988925;28;20031;-72
2022/11/01 09:50:46;;;;;;;2.67;0.80;;;15.70;99.90;;;;;;4988348;28;20034;-72
2022/11/01 09:53:20;;;;;;;2.05;0.77;;;15.80;99.90;;;;;;4985618;28;20062;-71
2022/11/01 09:55:48;;;;;;;2.53;0.93;;;15.70;99.90;;;;;;4988243;28;20070;-70
2022/11/01 09:58:39;;;;;;;2.55;1.23;;;15.70;99.90;;;;;;4987904;28;20061;-71
2022/11/01 10:01:23;;;;;;;;;;;15.70;99.90;;;;;;4987638;28;20545;-70
2022/11/01 10:03:53;;;;;;;1.73;0.70;;;15.80;99.90;;;;;;4996181;28;20013;-71
2022/11/01 10:06:52;;;;;;;3.75;0.75;;;15.80;99.90;;;;;;4986662;28;20549;-71
2022/11/01 10:09:38;;;;;;;2.58;0.95;;;15.80;99.90;;;;;;4980612;28;20049;-70
2022/11/01 10:12:35;;;;;;;2.58;0.90;;;15.80;99.90;;;;;;4987020;28;20050;-71
2022/11/01 10:15:13;;;;;;;1.67;0.80;;;15.80;99.90;;;;;;4991347;28;20042;-72
2022/11/01 10:17:51;;;;;;;5.28;1.13;;;15.70;99.90;;;;;;4992181;28;20348;-71
2022/11/01 10:20:31;;;;;;;1.67;0.75;;;15.70;99.90;;;;;;5005533;28;20425;-71
2022/11/01 10:22:58;;;;;;;3.92;0.75;;;15.70;99.90;;;;;;4991542;28;20467;-71
2022/11/01 10:25:29;;;;;;;3.05;0.75;;;15.70;99.90;;;;;;4980145;28;20038;-72
2022/11/01 10:28:03;;;;;;;1.52;0.85;;;15.70;99.90;;;;;;5000052;28;20748;-71
2022/11/01 10:30:36;;;;;;;1.70;0.75;;;15.80;99.90;;;;;;4970157;28;20064;-70
2022/11/01 10:33:29;;;;;;;4.32;0.60;;;15.90;99.90;;;;;;4970548;28;20578;-70
2022/11/01 10:36:05;;;;;;;2.90;0.80;;;16.00;99.90;;;;;;4966665;28;20089;-71
2022/11/01 10:38:39;;;;;;;2.90;0.80;;;16.20;99.90;;;;;;4975710;28;20038;-72
2022/11/01 10:41:08;;;;;;;1.38;0.50;;;16.20;99.90;;;;;;4955848;28;20053;-71
2022/11/01 10:43:38;;;;;;;1.73;0.60;;;16.30;99.90;;;;;;4989475;28;20046;-69
2022/11/01 10:46:08;;;;;;;1.10;0.40;;;16.40;99.90;;;;;;4974372;28;20050;-72
2022/11/01 10:49:11;;;;;;;1.15;0.65;;;16.50;99.90;;;;;;4964707;28;20996;-73
2022/11/01 10:51:41;;;;;;;2.88;0.55;;;16.50;99.90;;;;;;4970805;28;20143;-73
2022/11/01 10:54:15;;;;;;;2.20;0.70;;;16.50;99.90;;;;;;4990685;28;20073;-72
2022/11/01 10:56:45;;;;;;;1.85;0.95;;;16.40;99.90;;;;;;4990238;28;20113;-72
2022/11/01 10:59:17;;;;;;;0.70;0.40;;;16.40;99.90;;;;;;4991367;28;20125;-71
2022/11/01 11:01:44;;;;;;;0.85;0.50;;;16.40;99.90;;;;;;4990656;28;20463;-71
2022/11/01 11:04:15;;;;;;;0.90;0.50;;;16.40;99.90;;;;;;4986010;28;20046;-72
2022/11/01 11:06:41;;;;;;;3.15;0.50;;;16.50;99.90;;;;;;4991416;28;20038;-71
2022/11/01 11:09:23;;;;;;;2.33;0.68;;;16.40;99.90;;;;;;4990977;28;20065;-72
2022/11/01 11:11:49;;;;;;;1.40;0.47;;;16.50;99.90;;;;;;5007856;28;20033;-71
2022/11/01 11:14:19;;;;;;;2.38;0.50;;;16.60;99.90;;;;;;4999906;28;20495;-72
2022/11/01 11:16:51;;;;;;;1.63;0.50;;;16.70;99.90;;;;;;4985561;28;20078;-73
2022/11/01 11:19:29;;;;;;;0.88;0.50;;;16.70;99.90;;;;;;4990396;28;20033;-73
2022/11/01 11:21:56;;;;;;;1.27;0.40;;;16.60;99.90;;;;;;4990167;28;20484;-71
2022/11/01 11:24:36;;;;;;;1.38;0.65;;;16.70;99.90;;;;;;4990927;28;20112;-72
2022/11/01 11:27:10;;;;;;;1.30;0.65;;;16.70;99.90;;;;;;4991844;28;20038;-72
2022/11/01 11:29:50;;;;;;;2.78;0.43;;;16.70;99.90;;;;;;4989900;28;20038;-73
2022/11/01 11:32:28;;;;;;;1.35;0.65;;;16.70;99.90;;;;;;4991373;28;20080;-72
2022/11/01 11:35:01;;;;;;;1.40;0.80;;;16.60;99.90;;;;;;4990871;28;20030;-73
2022/11/01 11:37:33;;;;;;;1.85;0.88;;;16.60;99.90;;;;;;4991083;28;20100;-73
2022/11/01 11:40:05;;;;;;;1.15;0.50;;;16.60;99.90;;;;;;4990192;28;20097;-73
2022/11/01 11:42:32;;;;;;;3.00;0.68;;;16.60;99.90;;;;;;4990871;28;20495;-73
2022/11/01 11:45:14;;;;;;;1.88;0.43;;;16.60;99.90;;;;;;5000109;28;20108;-72
2022/11/01 11:47:40;;;;;;;2.38;0.75;;;16.70;99.90;;;;;;5009169;28;20080;-73
2022/11/01 11:50:36;;;;;;;3.22;0.70;;;16.80;99.90;;;;;;5010140;28;20053;-73
2022/11/01 11:53:05;;;;;;;1.50;0.60;;;16.90;99.90;;;;;;5001409;28;20042;-73
2022/11/01 11:55:46;;;;;;;1.40;0.75;;;16.80;99.90;;;;;;4990676;28;20037;-73
2022/11/01 11:58:32;;;;;;;1.05;0.50;;;16.90;99.90;;;;;;4989258;28;20792;-72
2022/11/01 12:01:06;;;;;;;2.25;0.70;;;17.00;99.90;;;;;;4991468;28;20084;-71
2022/11/01 12:03:53;;;;;;;2.17;0.70;;;17.00;99.90;;;;;;5010239;28;20113;-73
2022/11/01 12:06:22;;;;;;;1.15;0.88;;;17.10;99.90;;;;;;5010309;28;20097;-72
2022/11/01 12:08:53;;;;;;;4.20;0.63;;;17.10;99.90;;;;;;4997734;28;20038;-72
2022/11/01 12:11:20;;;;;;;1.00;0.60;;;17.10;99.90;;;;;;4990326;28;20105;-73
2022/11/01 12:14:00;;;;;;;2.25;0.90;;;17.20;99.90;;;;;;4990192;28;20053;-72
2022/11/01 12:16:26;;;;;;;1.95;0.75;;;17.30;99.90;;;;;;4989199;28;20040;-73
2022/11/01 12:18:59;;;;;;;1.33;0.60;;;17.30;99.90;;;;;;4998147;28;20046;-72
2022/11/01 12:21:27;;;;;;;2.13;0.85;;;17.20;99.90;;;;;;4998056;28;20069;-74
2022/11/01 12:24:17;;;;;;;3.53;1.88;;;17.00;99.90;;;;;;5002362;28;20133;-72
2022/11/01 12:26:44;;;;;;;1.42;0.63;;;16.90;99.90;;;;;;4977980;28;20375;-73
2022/11/01 12:29:34;;;;;;;2.20;1.00;;;16.90;99.90;;;;;;4989920;28;20030;-74
2022/11/01 12:32:15;;;;;;;3.30;1.10;;;17.00;99.90;;;;;;4987171;28;20026;-73
2022/11/01 12:34:42;;;;;;;;;;;16.90;99.90;;;;;;4990236;28;20070;-71
2022/11/01 12:37:30;;;;;;;2.70;0.82;;;16.90;99.90;;;;;;4988867;28;19921;-72
2022/11/01 12:40:10;;;;;;;2.17;0.80;;;16.90;99.90;;;;;;4989147;28;20117;-71
2022/11/01 12:42:57;;;;;;;2.72;0.90;;;16.90;99.90;;;;;;4989668;28;20427;-73
2022/11/01 12:45:33;;;;;;;3.47;0.95;;;16.90;99.90;;;;;;4970051;28;20500;-72
2022/11/01 12:48:04;;;;;;;1.27;0.70;;;17.00;99.90;;;;;;4999095;28;20390;-72
2022/11/01 12:50:53;;;;;;;3.30;1.00;;;16.90;99.90;;;;;;5009512;28;20542;-72
2022/11/01 12:53:26;;;;;;;1.60;0.70;;;17.00;99.90;;;;;;5009538;28;20026;-71
2022/11/01 12:55:52;;;;;;;1.95;1.00;;;16.90;99.90;;;;;;5006014;28;20512;-72
2022/11/01 12:58:21;;;;;;;2.03;0.80;;;16.90;99.90;;;;;;5008413;28;20072;-72
2022/11/01 13:01:24;;;;;;;1.95;0.80;;;16.90;99.90;;;;;;4989837;28;20037;-71
2022/11/01 13:04:10;;;;;;;2.08;0.90;;;16.80;99.90;;;;;;4989139;28;20045;-72